Time;durP1;ratioP1;P1;durP2;ratioP2;P2;SDS_P1;SDS_P2;PMS_P1;PMS_P2;Temp;Humidity;BMP_temperature;BMP_pressure;BME280_temperature;BME280_humidity;BME280_pressure;Samples;Min_cycle;Max_cycle;Signal;HPM_P1;HPM_P2
2023/09/21 00:01:11;;;;;;;2.80;1.00;;;17.60;99.90;;;;;;4814092;29;20390;-90
2023/09/21 00:03:39;;;;;;;2.33;0.93;;;17.60;99.90;;;;;;4828687;29;20514;-91
2023/09/21 00:06:05;;;;;;;2.67;0.98;;;17.60;99.90;;;;;;4822758;29;20388;-91
2023/09/21 00:08:32;;;;;;;1.95;1.00;;;17.60;99.90;;;;;;4837609;29;20045;-89
2023/09/21 00:10:58;;;;;;;3.42;1.10;;;17.60;99.90;;;;;;4844505;29;20109;-91
2023/09/21 00:13:28;;;;;;;2.22;1.00;;;17.60;99.90;;;;;;4829468;29;20129;-89
2023/09/21 00:16:02;;;;;;;1.92;1.20;;;17.60;99.90;;;;;;4815378;29;20041;-89
2023/09/21 00:18:31;;;;;;;3.30;0.88;;;17.60;99.90;;;;;;4833047;29;20093;-92
2023/09/21 00:21:00;;;;;;;3.15;1.08;;;17.60;99.90;;;;;;4845467;29;20048;-91
2023/09/21 00:23:26;;;;;;;2.75;0.90;;;17.60;99.90;;;;;;4824044;29;20068;-89
2023/09/21 00:25:57;;;;;;;3.03;1.00;;;17.60;99.90;;;;;;4813051;29;20061;-89
2023/09/21 00:28:24;;;;;;;2.67;0.85;;;17.60;99.90;;;;;;4840298;29;20049;-91
2023/09/21 00:30:55;;;;;;;2.95;1.00;;;17.50;99.90;;;;;;4828885;29;20100;-90
2023/09/21 00:33:21;;;;;;;2.80;1.00;;;17.10;99.90;;;;;;4831668;29;20465;-91
2023/09/21 00:35:47;;;;;;;2.03;1.08;;;17.50;99.90;;;;;;4813152;29;20093;-92
2023/09/21 00:38:15;;;;;;;3.65;0.90;;;17.50;99.90;;;;;;4839922;29;20055;-93
2023/09/21 00:40:42;;;;;;;3.58;1.08;;;17.50;99.90;;;;;;4844334;29;20041;-89
2023/09/21 00:43:12;;;;;;;3.03;1.00;;;17.50;99.90;;;;;;4843726;29;20049;-90
2023/09/21 00:45:41;;;;;;;1.98;0.95;;;17.50;99.90;;;;;;4819382;29;20041;-90
2023/09/21 00:48:12;;;;;;;2.47;1.10;;;17.50;99.90;;;;;;4840393;29;20042;-91
2023/09/21 00:50:41;;;;;;;1.75;1.00;;;17.50;99.90;;;;;;4818109;29;20222;-91
2023/09/21 00:53:12;;;;;;;1.58;0.90;;;17.60;99.90;;;;;;4829786;29;20045;-91
2023/09/21 00:55:39;;;;;;;4.32;1.00;;;17.60;99.90;;;;;;4811046;29;20129;-92
2023/09/21 00:58:07;;;;;;;2.05;1.00;;;17.60;99.90;;;;;;4827951;29;20097;-92
2023/09/21 01:01:09;;;;;;;2.25;1.25;;;17.60;99.90;;;;;;4816216;29;20744;-91
2023/09/21 01:03:37;;;;;;;2.38;1.15;;;17.70;99.90;;;;;;4849036;29;20049;-92
2023/09/21 01:06:05;;;;;;;3.75;1.40;;;17.60;99.90;;;;;;4807758;29;20081;-91
2023/09/21 01:08:34;;;;;;;3.60;1.13;;;17.70;99.90;;;;;;4843272;29;20041;-90
2023/09/21 01:11:06;;;;;;;3.22;1.20;;;17.70;99.90;;;;;;4805175;29;20038;-91
2023/09/21 01:13:35;;;;;;;2.67;1.35;;;17.70;99.90;;;;;;4829195;29;20050;-91
2023/09/21 01:16:06;;;;;;;3.60;1.10;;;17.70;99.90;;;;;;4831166;29;20065;-90
2023/09/21 01:18:32;;;;;;;2.70;1.10;;;17.70;99.90;;;;;;4847326;29;20053;-89
2023/09/21 01:21:04;;;;;;;3.17;1.23;;;17.60;99.90;;;;;;4820254;29;20046;-91
2023/09/21 01:23:43;;;;;;;2.80;1.00;;;17.60;99.90;;;;;;4846539;29;20069;-92
2023/09/21 01:26:10;;;;;;;2.33;1.17;;;17.70;99.90;;;;;;4831028;29;20045;-91
2023/09/21 01:28:37;;;;;;;2.15;0.90;;;17.70;99.90;;;;;;4825498;29;20053;-88
2023/09/21 01:31:03;;;;;;;2.22;1.00;;;17.70;99.90;;;;;;4847296;29;20042;-92
2023/09/21 01:33:29;;;;;;;1.65;1.00;;;17.70;99.90;;;;;;4847175;29;20100;-91
2023/09/21 01:35:55;;;;;;;3.45;1.00;;;17.70;99.90;;;;;;4832168;29;20570;-90
2023/09/21 01:38:27;;;;;;;2.33;1.08;;;17.70;99.90;;;;;;4816611;29;20053;-92
2023/09/21 01:40:53;;;;;;;3.28;1.20;;;17.60;99.90;;;;;;4835987;29;20053;-90
2023/09/21 01:43:19;;;;;;;3.33;1.38;;;17.60;99.90;;;;;;4846638;29;20458;-89
2023/09/21 01:45:51;;;;;;;3.38;1.73;;;17.60;99.90;;;;;;4803492;29;20128;-90
2023/09/21 01:48:18;;;;;;;1.88;1.00;;;17.60;99.90;;;;;;4832793;29;20512;-90
2023/09/21 01:50:47;;;;;;;2.30;1.30;;;17.60;99.90;;;;;;4833500;29;20065;-92
2023/09/21 01:53:17;;;;;;;2.42;1.30;;;17.60;99.90;;;;;;4845033;29;20088;-90
2023/09/21 01:55:47;;;;;;;3.42;1.05;;;17.60;99.90;;;;;;4816704;29;20042;-91
2023/09/21 01:58:14;;;;;;;4.85;1.30;;;17.90;99.90;;;;;;4831157;29;20072;-89
2023/09/21 02:00:43;;;;;;;3.58;1.20;;;17.50;99.90;;;;;;4817400;29;20447;-91
2023/09/21 02:03:11;;;;;;;1.98;1.20;;;17.50;99.90;;;;;;4838384;29;20053;-88
2023/09/21 02:05:37;;;;;;;2.33;1.17;;;17.50;99.90;;;;;;4849247;29;20132;-91
2023/09/21 02:08:08;;;;;;;1.92;0.98;;;17.50;99.90;;;;;;4811095;29;20212;-90
2023/09/21 02:10:35;;;;;;;2.95;1.10;;;17.50;99.90;;;;;;4849331;29;20049;-91
2023/09/21 02:13:05;;;;;;;1.95;1.10;;;17.50;99.90;;;;;;4862261;29;20049;-92
2023/09/21 02:15:31;;;;;;;4.63;1.50;;;17.40;99.90;;;;;;4847499;29;20046;-92
2023/09/21 02:17:57;;;;;;;1.75;1.23;;;17.50;99.90;;;;;;4817165;29;20041;-89
2023/09/21 02:20:23;;;;;;;4.03;1.20;;;17.40;99.90;;;;;;4831972;29;20046;-91
2023/09/21 02:22:51;;;;;;;1.90;1.30;;;17.40;99.90;;;;;;4846388;29;20048;-91
2023/09/21 02:25:20;;;;;;;2.30;1.33;;;17.40;99.90;;;;;;4849115;29;20046;-91
2023/09/21 02:27:47;;;;;;;3.20;1.27;;;17.40;99.90;;;;;;4831510;29;20178;-91
2023/09/21 02:30:20;;;;;;;2.63;1.17;;;17.40;99.90;;;;;;4824213;29;20524;-91
2023/09/21 02:32:51;;;;;;;3.47;1.23;;;17.40;99.90;;;;;;4830468;29;20042;-90
2023/09/21 02:35:27;;;;;;;2.65;1.00;;;17.30;99.90;;;;;;4846402;29;20474;-93
2023/09/21 02:37:54;;;;;;;2.63;1.05;;;17.30;99.90;;;;;;4845084;29;20048;-90
2023/09/21 02:40:21;;;;;;;4.03;1.20;;;17.30;99.90;;;;;;4845607;29;20493;-87
2023/09/21 02:42:49;;;;;;;1.67;0.90;;;17.30;99.90;;;;;;4827241;29;20053;-90
2023/09/21 02:45:16;;;;;;;4.43;1.23;;;17.30;99.90;;;;;;4838898;29;20056;-88
2023/09/21 02:47:42;;;;;;;2.13;1.00;;;17.30;99.90;;;;;;4832383;29;20713;-91
2023/09/21 02:50:31;;;;;;;1.73;0.80;;;17.30;99.90;;;;;;4810442;29;20049;-92
2023/09/21 02:53:04;;;;;;;1.30;0.85;;;17.30;99.90;;;;;;4826204;29;20128;-92
2023/09/21 02:55:30;;;;;;;2.22;1.20;;;17.30;99.90;;;;;;4820983;29;20128;-88
2023/09/21 02:57:58;;;;;;;2.25;1.10;;;17.30;99.90;;;;;;4849536;29;20044;-91
2023/09/21 03:00:35;;;;;;;3.03;1.00;;;17.30;99.90;;;;;;4845312;29;20073;-89
2023/09/21 03:03:04;;;;;;;1.55;0.90;;;17.40;99.90;;;;;;4835180;29;20045;-91
2023/09/21 03:05:33;;;;;;;3.30;1.05;;;17.40;99.90;;;;;;4816759;29;20444;-89
2023/09/21 03:08:09;;;;;;;2.10;0.80;;;17.40;99.90;;;;;;4821877;29;20040;-91
2023/09/21 03:10:36;;;;;;;3.78;1.45;;;17.40;99.90;;;;;;4834979;29;20438;-93
2023/09/21 03:13:02;;;;;;;3.25;1.25;;;17.50;99.90;;;;;;4819198;29;20056;-88
2023/09/21 03:15:29;;;;;;;3.22;1.13;;;17.60;99.90;;;;;;4860981;29;20045;-89
2023/09/21 03:17:55;;;;;;;3.10;0.90;;;17.60;99.90;;;;;;4832978;29;20053;-89
2023/09/21 03:20:37;;;;;;;4.15;1.17;;;17.60;99.90;;;;;;4814294;29;20037;-91
2023/09/21 03:23:09;;;;;;;2.75;0.82;;;17.70;99.90;;;;;;4845786;29;20046;-91
2023/09/21 03:25:42;;;;;;;2.20;0.90;;;17.70;99.90;;;;;;4818316;29;20049;-90
2023/09/21 03:28:13;;;;;;;2.13;1.00;;;17.70;99.90;;;;;;4844933;29;20049;-91
2023/09/21 03:30:43;;;;;;;2.15;0.80;;;17.80;99.90;;;;;;4845968;29;20096;-92
2023/09/21 03:33:10;;;;;;;3.60;1.10;;;17.80;99.90;;;;;;4839339;29;20042;-90
2023/09/21 03:35:39;;;;;;;1.95;0.90;;;17.90;99.90;;;;;;4840835;29;20089;-91
2023/09/21 03:38:06;;;;;;;2.55;1.25;;;17.90;99.90;;;;;;4833495;29;20528;-89
2023/09/21 03:40:35;;;;;;;2.58;0.90;;;17.90;99.90;;;;;;4861389;29;20045;-91
2023/09/21 03:43:01;;;;;;;3.55;1.00;;;17.90;99.90;;;;;;4839525;29;20045;-93
2023/09/21 03:45:27;;;;;;;3.30;1.00;;;17.90;99.90;;;;;;4829561;29;20410;-90
2023/09/21 03:47:54;;;;;;;3.97;0.93;;;17.90;99.90;;;;;;4838316;29;20101;-92
2023/09/21 03:50:21;;;;;;;3.55;1.20;;;17.90;99.90;;;;;;4832366;29;20088;-89
2023/09/21 03:52:50;;;;;;;;;;;18.00;99.90;;;;;;4830340;29;20439;-90
2023/09/21 03:55:16;;;;;;;2.20;0.93;;;17.90;99.90;;;;;;4815720;29;19927;-91
2023/09/21 03:57:46;;;;;;;2.10;0.90;;;18.00;99.90;;;;;;4815539;29;20045;-90
2023/09/21 04:02:59;;;;;;;3.20;1.10;;;17.90;99.90;;;;;;4846607;29;20079;-90
2023/09/21 04:05:34;;;;;;;2.30;0.80;;;17.90;99.90;;;;;;4818620;29;20053;-92
2023/09/21 04:08:00;;;;;;;2.10;1.10;;;17.90;99.90;;;;;;4816130;29;20049;-90
2023/09/21 04:10:26;;;;;;;2.10;0.90;;;17.90;99.90;;;;;;4795440;29;20057;-90
2023/09/21 04:12:55;;;;;;;2.37;1.23;;;17.90;99.90;;;;;;4813869;29;20106;-91
2023/09/21 04:15:22;;;;;;;2.30;0.90;;;17.90;99.90;;;;;;4804996;29;20461;-91
2023/09/21 04:17:48;;;;;;;1.60;0.77;;;17.90;99.90;;;;;;4838467;29;20037;-89
2023/09/21 04:20:14;;;;;;;3.30;0.88;;;17.90;99.90;;;;;;4811846;29;20053;-92
2023/09/21 04:22:42;;;;;;;3.10;1.10;;;17.80;99.90;;;;;;4814291;29;20473;-91
2023/09/21 04:25:09;;;;;;;1.65;0.95;;;17.80;99.90;;;;;;4837528;29;20534;-91
2023/09/21 04:27:41;;;;;;;1.23;0.82;;;17.80;99.90;;;;;;4813732;29;20545;-91
2023/09/21 04:30:09;;;;;;;2.08;1.10;;;17.80;99.90;;;;;;4840887;29;20439;-91
2023/09/21 04:32:39;;;;;;;1.85;0.80;;;17.80;99.90;;;;;;4848300;29;20391;-93
2023/09/21 04:35:06;;;;;;;3.25;1.02;;;17.80;99.90;;;;;;4848558;29;20041;-92
2023/09/21 04:37:35;;;;;;;1.48;1.00;;;17.70;99.90;;;;;;4813222;29;20045;-90
2023/09/21 04:40:06;;;;;;;4.43;1.00;;;17.80;99.90;;;;;;4829752;29;20114;-91
2023/09/21 04:42:32;;;;;;;1.80;0.73;;;17.70;99.90;;;;;;4817469;29;20498;-91
2023/09/21 04:45:01;;;;;;;2.90;0.80;;;17.80;99.90;;;;;;4821541;29;20489;-90
2023/09/21 04:47:27;;;;;;;3.33;1.30;;;17.80;99.90;;;;;;4845865;29;20833;-93
2023/09/21 04:49:56;;;;;;;1.50;0.75;;;17.80;99.90;;;;;;4820964;29;20189;-88
2023/09/21 04:52:22;;;;;;;3.25;0.98;;;17.80;99.90;;;;;;4817281;29;20042;-90
2023/09/21 04:54:52;;;;;;;1.50;1.02;;;17.70;99.90;;;;;;4827816;29;20052;-88
2023/09/21 04:57:19;;;;;;;2.90;1.10;;;17.70;99.90;;;;;;4854215;29;20041;-88
2023/09/21 04:59:45;;;;;;;2.58;1.00;;;17.70;99.90;;;;;;4817562;29;20072;-90
2023/09/21 05:02:11;;;;;;;3.50;1.05;;;17.70;99.90;;;;;;4834864;29;20037;-90
2023/09/21 05:04:37;;;;;;;2.08;1.00;;;17.70;99.90;;;;;;4800529;29;20178;-89
2023/09/21 05:07:02;;;;;;;2.53;1.10;;;17.70;99.90;;;;;;4825618;29;20699;-91
2023/09/21 05:09:28;;;;;;;2.38;1.15;;;17.70;99.90;;;;;;4809163;29;20049;-89
2023/09/21 05:11:54;;;;;;;3.03;1.10;;;17.70;99.90;;;;;;4819593;29;20073;-89
2023/09/21 05:14:21;;;;;;;4.05;1.08;;;17.70;99.90;;;;;;4835903;29;20080;-88
2023/09/21 05:16:47;;;;;;;1.85;1.10;;;17.60;99.90;;;;;;4819500;29;20036;-91
2023/09/21 05:19:14;;;;;;;2.88;1.10;;;17.60;99.90;;;;;;4850409;29;20117;-88
2023/09/21 05:21:40;;;;;;;2.38;1.10;;;17.60;99.90;;;;;;4832580;29;20439;-92
2023/09/21 05:24:07;;;;;;;2.20;0.85;;;17.60;99.90;;;;;;4813360;29;20049;-90
2023/09/21 05:26:33;;;;;;;1.85;1.55;;;17.60;99.90;;;;;;4835873;29;20081;-89
2023/09/21 05:28:59;;;;;;;2.55;1.00;;;17.60;99.90;;;;;;4827204;29;20096;-89
2023/09/21 05:31:24;;;;;;;2.28;1.05;;;17.60;99.90;;;;;;4840426;29;20045;-87
2023/09/21 05:33:50;;;;;;;1.55;1.00;;;17.60;99.90;;;;;;4819448;29;20060;-88
2023/09/21 05:36:16;;;;;;;1.73;0.90;;;17.70;99.90;;;;;;4851811;29;20041;-87
2023/09/21 05:38:42;;;;;;;3.25;1.20;;;17.70;99.90;;;;;;4816162;29;20553;-87
2023/09/21 05:41:09;;;;;;;3.03;0.90;;;17.80;99.90;;;;;;4820900;29;20045;-86
2023/09/21 05:43:36;;;;;;;2.70;1.05;;;17.80;99.90;;;;;;4822687;29;20451;-89
2023/09/21 05:46:02;;;;;;;2.28;1.10;;;17.80;99.90;;;;;;4791942;29;20252;-86
2023/09/21 05:48:28;;;;;;;1.92;0.80;;;17.90;99.90;;;;;;4826725;29;20124;-89
2023/09/21 05:50:54;;;;;;;3.05;1.00;;;18.00;99.90;;;;;;4845992;29;20217;-88
2023/09/21 05:53:20;;;;;;;2.33;1.17;;;17.90;99.90;;;;;;4827180;29;20046;-89
2023/09/21 05:55:46;;;;;;;2.05;0.80;;;18.00;99.90;;;;;;4815382;29;20041;-88
2023/09/21 05:58:12;;;;;;;1.30;0.77;;;18.00;99.90;;;;;;4810456;29;20683;-88
2023/09/21 06:00:40;;;;;;;3.83;1.17;;;18.10;99.90;;;;;;4820759;29;20520;-88
2023/09/21 06:03:06;;;;;;;1.88;1.10;;;18.10;99.90;;;;;;4841799;29;20484;-87
2023/09/21 06:05:32;;;;;;;1.93;0.80;;;18.20;99.90;;;;;;4844970;29;20612;-86
2023/09/21 06:07:58;;;;;;;1.90;1.10;;;18.10;99.90;;;;;;4829645;29;20536;-89
2023/09/21 06:10:25;;;;;;;2.15;1.00;;;18.10;99.90;;;;;;4845572;29;20052;-88
2023/09/21 06:12:52;;;;;;;1.77;0.90;;;18.10;99.90;;;;;;4844440;29;20113;-88
2023/09/21 06:15:18;;;;;;;2.58;1.00;;;18.20;99.90;;;;;;4842638;29;20037;-89
2023/09/21 06:17:45;;;;;;;4.15;1.10;;;18.20;99.90;;;;;;4843317;29;20470;-86
2023/09/21 06:20:11;;;;;;;2.78;0.80;;;18.20;99.90;;;;;;4848151;29;20045;-88
2023/09/21 06:22:37;;;;;;;2.08;1.15;;;18.20;99.90;;;;;;4836247;29;20478;-91
2023/09/21 06:25:06;;;;;;;3.90;1.15;;;18.20;99.90;;;;;;4807548;29;20651;-90
2023/09/21 06:27:33;;;;;;;1.85;0.98;;;18.30;99.90;;;;;;4845853;29;20044;-88
2023/09/21 06:29:58;;;;;;;1.90;0.90;;;18.30;99.90;;;;;;4835973;29;20056;-88
2023/09/21 06:32:25;;;;;;;1.48;0.93;;;18.30;99.90;;;;;;4800154;29;20049;-87
2023/09/21 06:34:51;;;;;;;4.65;1.13;;;18.30;99.90;;;;;;4826428;29;20046;-88
2023/09/21 06:37:21;;;;;;;2.17;1.00;;;18.30;99.90;;;;;;4826514;29;20181;-85
2023/09/21 06:39:46;;;;;;;2.13;0.80;;;18.40;99.90;;;;;;4802661;29;20053;-89
2023/09/21 06:42:15;;;;;;;2.85;1.00;;;18.40;99.90;;;;;;4812249;29;20042;-88
2023/09/21 06:44:41;;;;;;;1.77;0.80;;;18.40;99.90;;;;;;4829904;29;20052;-89
2023/09/21 06:47:07;;;;;;;2.67;0.98;;;18.40;99.90;;;;;;4830607;29;20081;-88
2023/09/21 06:49:36;;;;;;;2.08;1.00;;;18.40;99.90;;;;;;4830412;29;20076;-87
2023/09/21 06:52:03;;;;;;;2.05;0.65;;;18.40;99.90;;;;;;4830087;29;20076;-88
2023/09/21 06:54:29;;;;;;;2.40;1.00;;;18.40;99.90;;;;;;4828756;29;20494;-89
2023/09/21 06:57:03;;;;;;;2.53;1.05;;;18.40;99.90;;;;;;4827863;29;20102;-88
2023/09/21 06:59:29;;;;;;;1.95;0.70;;;18.40;99.90;;;;;;4805560;29;20096;-91
2023/09/21 07:01:55;;;;;;;1.60;0.90;;;18.40;99.90;;;;;;4839219;29;20084;-90
2023/09/21 07:04:21;;;;;;;1.67;0.85;;;18.40;99.90;;;;;;4799665;29;20072;-90
2023/09/21 07:06:47;;;;;;;2.50;1.13;;;18.40;99.90;;;;;;4825930;29;20124;-87
2023/09/21 07:09:13;;;;;;;3.88;1.27;;;18.30;99.90;;;;;;4814716;29;20180;-89
2023/09/21 07:11:40;;;;;;;2.10;1.20;;;18.30;99.90;;;;;;4820340;29;20562;-88
2023/09/21 07:14:05;;;;;;;2.33;0.75;;;18.30;99.90;;;;;;4828521;29;20498;-88
2023/09/21 07:16:31;;;;;;;1.80;0.90;;;18.20;99.90;;;;;;4815325;29;20056;-89
2023/09/21 07:18:57;;;;;;;2.10;1.10;;;18.20;99.90;;;;;;4798824;29;20045;-90
2023/09/21 07:21:23;;;;;;;2.63;0.93;;;18.20;99.90;;;;;;4813398;29;20045;-90
2023/09/21 07:23:49;;;;;;;2.10;1.15;;;18.10;99.90;;;;;;4828421;29;20041;-90
2023/09/21 07:26:15;;;;;;;2.72;1.00;;;18.10;99.90;;;;;;4808547;29;20081;-90
2023/09/21 07:28:41;;;;;;;2.60;1.20;;;18.00;99.90;;;;;;4801202;29;20555;-90
2023/09/21 07:31:09;;;;;;;1.58;1.00;;;18.00;99.90;;;;;;4833858;29;20145;-90
2023/09/21 07:33:35;;;;;;;2.97;1.42;;;18.00;99.90;;;;;;4826395;29;20133;-88
2023/09/21 07:36:02;;;;;;;2.15;1.13;;;18.00;99.90;;;;;;4842960;29;20037;-88
2023/09/21 07:38:28;;;;;;;;;;;17.90;99.90;;;;;;4831193;29;20420;-89
2023/09/21 07:40:54;;;;;;;2.13;1.10;;;17.90;99.90;;;;;;4860287;29;19920;-92
2023/09/21 07:43:20;;;;;;;2.67;0.98;;;17.80;99.90;;;;;;4844992;29;20465;-90
2023/09/21 07:45:50;;;;;;;3.78;1.10;;;17.80;99.90;;;;;;4823797;29;20132;-89
2023/09/21 07:48:16;;;;;;;2.05;1.23;;;17.90;99.90;;;;;;4823427;29;20077;-89
2023/09/21 07:50:43;;;;;;;2.05;1.20;;;17.90;99.90;;;;;;4819080;29;20466;-89
2023/09/21 07:53:09;;;;;;;3.33;1.38;;;17.90;99.90;;;;;;4825994;29;20050;-88
2023/09/21 07:55:35;;;;;;;1.80;1.10;;;17.90;99.90;;;;;;4842604;29;20106;-89
2023/09/21 07:58:01;;;;;;;2.67;1.27;;;17.90;99.90;;;;;;4832102;29;25249;-89
2023/09/21 08:00:27;;;;;;;2.00;1.10;;;17.90;99.90;;;;;;4799933;29;20042;-90
2023/09/21 08:02:53;;;;;;;2.65;1.38;;;17.90;99.90;;;;;;4815181;29;20056;-88
2023/09/21 08:05:19;;;;;;;3.05;1.30;;;17.90;99.90;;;;;;4801307;29;20481;-91
2023/09/21 08:07:45;;;;;;;2.50;1.27;;;17.90;99.90;;;;;;4830784;29;20117;-91
2023/09/21 08:10:11;;;;;;;2.42;1.15;;;17.90;99.90;;;;;;4821643;29;20110;-88
2023/09/21 08:12:40;;;;;;;1.58;1.00;;;17.90;99.90;;;;;;4837411;29;20049;-90
2023/09/21 08:15:06;;;;;;;2.05;0.90;;;17.80;99.90;;;;;;4829502;29;20041;-90
2023/09/21 08:17:33;;;;;;;3.22;1.08;;;17.80;99.90;;;;;;4830931;29;20132;-94
2023/09/21 08:19:59;;;;;;;2.37;1.67;;;17.80;99.90;;;;;;4813409;29;20573;-89
2023/09/21 08:22:28;;;;;;;3.08;1.20;;;17.80;99.90;;;;;;4824654;29;20466;-91
2023/09/21 08:24:54;;;;;;;2.53;1.20;;;17.80;99.90;;;;;;4812908;29;20063;-91
2023/09/21 08:27:22;;;;;;;2.15;1.40;;;17.80;99.90;;;;;;4809287;29;20045;-92
2023/09/21 08:29:49;;;;;;;2.33;1.25;;;17.80;99.90;;;;;;4814176;29;20045;-90
2023/09/21 08:32:18;;;;;;;3.63;1.38;;;17.70;99.90;;;;;;4821544;29;20513;-89
2023/09/21 08:34:44;;;;;;;2.55;1.33;;;17.70;99.90;;;;;;4820394;29;20069;-92
2023/09/21 08:37:10;;;;;;;3.53;1.40;;;17.70;99.90;;;;;;4799809;29;20663;-91
2023/09/21 08:39:36;;;;;;;3.33;1.70;;;17.70;99.90;;;;;;4828696;29;20129;-89
2023/09/21 08:42:03;;;;;;;3.95;1.73;;;17.60;99.90;;;;;;4830228;29;20466;-90
2023/09/21 08:44:30;;;;;;;2.97;1.70;;;17.60;99.90;;;;;;4797474;29;20483;-93
2023/09/21 08:46:56;;;;;;;3.00;1.90;;;17.60;99.90;;;;;;4829758;29;20075;-93
2023/09/21 08:49:23;;;;;;;3.95;1.55;;;17.60;99.90;;;;;;4855410;29;20077;-92
2023/09/21 08:54:44;;;;;;;3.72;1.80;;;17.60;99.90;;;;;;4837589;29;20085;-93
2023/09/21 08:57:13;;;;;;;2.67;1.80;;;17.60;99.90;;;;;;4815232;29;20121;-93
2023/09/21 08:59:41;;;;;;;3.22;1.50;;;17.30;99.90;;;;;;4830651;29;20045;-94
2023/09/21 09:02:12;;;;;;;3.42;1.55;;;17.60;99.90;;;;;;4826189;29;20282;-93
2023/09/21 09:04:42;;;;;;;3.10;1.85;;;17.60;99.90;;;;;;4843369;29;20051;-93
2023/09/21 09:07:10;;;;;;;6.82;2.33;;;17.60;99.90;;;;;;4839131;29;20041;-94
2023/09/21 09:09:39;;;;;;;4.53;2.25;;;17.60;99.90;;;;;;4829960;29;20042;-93
2023/09/21 09:12:25;;;;;;;5.03;2.03;;;17.60;99.90;;;;;;4835865;29;20219;-93
2023/09/21 09:14:53;;;;;;;4.78;2.20;;;17.50;99.90;;;;;;4814463;29;20084;-94
2023/09/21 09:17:19;;;;;;;3.80;2.15;;;17.50;99.90;;;;;;4830396;29;20060;-93
2023/09/21 09:19:48;;;;;;;3.97;1.98;;;17.00;99.90;;;;;;4809944;29;20044;-94
2023/09/21 09:22:17;;;;;;;5.75;2.92;;;17.50;99.90;;;;;;4817799;29;20037;-93
2023/09/21 09:24:50;;;;;;;6.32;3.10;;;17.40;99.90;;;;;;4815629;29;20041;-93
2023/09/21 09:27:16;;;;;;;121.32;20.35;;;17.40;99.90;;;;;;4829936;29;20049;-92
2023/09/21 09:29:52;;;;;;;5.63;2.00;;;17.40;99.90;;;;;;4831183;29;20041;-91
2023/09/21 09:32:18;;;;;;;2.55;0.50;;;17.30;99.90;;;;;;4842788;29;20104;-94
2023/09/21 09:34:47;;;;;;;1.07;0.40;;;17.20;99.90;;;;;;4823405;29;20088;-94
2023/09/21 09:37:17;;;;;;;1.20;0.35;;;17.00;99.90;;;;;;4813778;29;20501;-92
2023/09/21 09:39:45;;;;;;;1.48;0.50;;;16.70;99.90;;;;;;4840251;29;20058;-93
2023/09/21 09:42:15;;;;;;;1.42;0.30;;;16.50;99.90;;;;;;4835537;29;20049;-95
2023/09/21 09:44:46;;;;;;;1.08;0.32;;;16.40;99.90;;;;;;4813830;29;20124;-94
2023/09/21 09:47:16;;;;;;;2.03;0.30;;;16.20;99.90;;;;;;4851339;29;20777;-93
2023/09/21 09:49:49;;;;;;;0.93;0.38;;;16.10;99.90;;;;;;4831030;29;20490;-94
2023/09/21 09:52:18;;;;;;;1.20;0.40;;;16.00;99.90;;;;;;4829005;29;20048;-94
2023/09/21 09:54:47;;;;;;;0.70;0.30;;;15.90;99.90;;;;;;4855237;29;20080;-93
2023/09/21 09:57:15;;;;;;;0.93;0.30;;;15.90;99.90;;;;;;4818543;29;20045;-92
2023/09/21 09:59:42;;;;;;;0.95;0.30;;;15.90;99.90;;;;;;4806369;29;20042;-91
2023/09/21 10:02:16;;;;;;;2.15;0.50;;;15.80;99.90;;;;;;4832731;29;20056;-90
2023/09/21 10:04:46;;;;;;;1.75;0.70;;;15.80;99.90;;;;;;4847470;29;20045;-89
2023/09/21 10:07:16;;;;;;;3.67;0.65;;;15.80;99.90;;;;;;4840460;29;20076;-88
2023/09/21 10:09:44;;;;;;;1.45;0.50;;;15.80;99.90;;;;;;4819436;29;20049;-88
2023/09/21 10:12:11;;;;;;;1.13;0.50;;;15.80;99.90;;;;;;4844771;29;20076;-86
2023/09/21 10:14:43;;;;;;;1.65;0.50;;;15.80;99.90;;;;;;4844694;29;20105;-85
2023/09/21 10:17:10;;;;;;;1.88;0.60;;;15.80;99.90;;;;;;4845665;29;20121;-87
2023/09/21 10:19:38;;;;;;;1.13;0.40;;;15.70;99.90;;;;;;4814781;29;20098;-87
2023/09/21 10:22:25;;;;;;;0.98;0.40;;;15.80;99.90;;;;;;4815014;29;20149;-86
2023/09/21 10:24:53;;;;;;;0.70;0.30;;;15.70;99.90;;;;;;4845551;29;20049;-87
2023/09/21 10:27:21;;;;;;;0.60;0.30;;;15.70;99.90;;;;;;4845341;29;20045;-87
2023/09/21 10:30:06;;;;;;;1.00;0.30;;;15.70;99.90;;;;;;4843124;29;20784;-87
2023/09/21 10:32:49;;;;;;;0.43;0.20;;;15.60;99.90;;;;;;4847061;29;20137;-87
2023/09/21 10:35:42;;;;;;;1.00;0.45;;;15.50;99.90;;;;;;4848120;29;20049;-86
2023/09/21 10:38:12;;;;;;;1.33;0.40;;;15.40;99.90;;;;;;4843963;29;20068;-87
2023/09/21 10:40:38;;;;;;;0.50;0.30;;;15.40;99.90;;;;;;4827036;29;20413;-89
2023/09/21 10:43:36;;;;;;;0.70;0.50;;;15.30;99.90;;;;;;4844878;29;20057;-91
2023/09/21 10:46:03;;;;;;;2.15;0.52;;;15.30;99.90;;;;;;4823988;29;20497;-90
2023/09/21 10:48:29;;;;;;;;;;;15.30;99.90;;;;;;4845753;29;20049;-89
2023/09/21 10:50:56;;;;;;;1.55;0.32;;;15.30;99.90;;;;;;4845324;29;19924;-90
2023/09/21 10:53:23;;;;;;;1.38;0.47;;;15.30;99.90;;;;;;4816215;29;20052;-90
2023/09/21 10:55:49;;;;;;;1.02;0.40;;;15.30;99.90;;;;;;4816564;29;20045;-91
2023/09/21 10:58:19;;;;;;;2.13;0.45;;;15.30;99.90;;;;;;4808287;29;20494;-91
2023/09/21 11:00:44;;;;;;;1.85;0.50;;;15.40;99.90;;;;;;4835914;29;20104;-91
2023/09/21 11:03:11;;;;;;;1.33;0.50;;;15.40;99.90;;;;;;4811364;29;20128;-88
2023/09/21 11:05:38;;;;;;;1.98;0.30;;;15.50;99.90;;;;;;4837667;29;20041;-88
2023/09/21 11:08:04;;;;;;;0.77;0.30;;;15.50;99.90;;;;;;4817580;29;20045;-88
2023/09/21 11:10:31;;;;;;;1.30;0.40;;;15.50;99.90;;;;;;4854714;29;20051;-88
2023/09/21 11:12:59;;;;;;;1.80;0.47;;;15.60;99.90;;;;;;4834332;29;20044;-89
2023/09/21 11:15:26;;;;;;;0.75;0.35;;;15.70;99.90;;;;;;4850174;29;20073;-93
2023/09/21 11:17:52;;;;;;;1.17;0.25;;;15.80;99.90;;;;;;4816949;29;20431;-91
2023/09/21 11:20:18;;;;;;;1.00;0.40;;;15.90;99.90;;;;;;4848616;29;20045;-92
2023/09/21 11:22:46;;;;;;;0.43;0.38;;;15.90;99.90;;;;;;4835023;29;20051;-92
2023/09/21 11:25:14;;;;;;;0.85;0.40;;;15.90;99.90;;;;;;4833550;29;20866;-91
2023/09/21 11:27:43;;;;;;;0.55;0.30;;;15.90;99.90;;;;;;4816469;29;20106;-92
2023/09/21 11:30:13;;;;;;;0.47;0.40;;;15.90;99.90;;;;;;4834179;29;20510;-92
2023/09/21 11:32:49;;;;;;;0.88;0.45;;;15.90;99.90;;;;;;4845803;29;20080;-88
2023/09/21 11:35:17;;;;;;;0.47;0.30;;;15.90;99.90;;;;;;4845220;29;20053;-89
2023/09/21 11:37:43;;;;;;;2.17;0.47;;;15.90;99.90;;;;;;4845019;29;20094;-89
2023/09/21 11:40:13;;;;;;;2.87;0.47;;;15.90;99.90;;;;;;4829208;29;20075;-89
2023/09/21 11:42:43;;;;;;;1.23;0.40;;;15.90;99.90;;;;;;4829092;29;20493;-90
2023/09/21 11:45:20;;;;;;;1.75;0.68;;;15.90;99.90;;;;;;4851965;29;20038;-90
2023/09/21 11:47:49;;;;;;;0.80;0.30;;;16.00;99.90;;;;;;4800277;29;20049;-91
2023/09/21 11:50:20;;;;;;;1.45;0.50;;;16.00;99.90;;;;;;4844108;29;20092;-90
2023/09/21 11:52:50;;;;;;;1.92;0.57;;;16.00;99.90;;;;;;4830469;29;21499;-90
2023/09/21 11:55:17;;;;;;;1.00;0.52;;;16.00;99.90;;;;;;4819371;29;20047;-90
2023/09/21 11:57:44;;;;;;;;;;;;;;;;;;4837384;29;20494;-90
2023/09/21 12:00:17;;;;;;;1.48;0.70;;;16.10;99.90;;;;;;4847295;29;20329;-90
2023/09/21 12:02:45;;;;;;;0.93;0.50;;;;;;;;;;4832139;29;20041;-90
2023/09/21 12:05:11;;;;;;;1.60;0.70;;;16.20;99.90;;;;;;4829191;29;20041;-92
2023/09/21 12:07:37;;;;;;;1.45;0.98;;;16.20;99.90;;;;;;4812281;29;20146;-91
2023/09/21 12:10:04;;;;;;;0.87;0.60;;;16.20;99.90;;;;;;4834622;29;20048;-91
2023/09/21 12:12:32;;;;;;;1.35;0.60;;;16.20;99.90;;;;;;4815141;29;20501;-90
2023/09/21 12:14:58;;;;;;;1.52;0.60;;;16.20;99.90;;;;;;4829487;29;20073;-90
2023/09/21 12:17:26;;;;;;;1.00;0.52;;;16.20;99.90;;;;;;4809845;29;20124;-89
2023/09/21 12:19:53;;;;;;;0.93;0.70;;;16.20;99.90;;;;;;4814407;29;20037;-90
2023/09/21 12:22:19;;;;;;;2.47;0.70;;;16.20;99.90;;;;;;4811338;29;20101;-91
2023/09/21 12:24:44;;;;;;;1.60;1.10;;;16.20;99.90;;;;;;4818748;29;20068;-92
2023/09/21 12:27:10;;;;;;;2.05;1.08;;;16.20;99.90;;;;;;4813230;29;20136;-92
2023/09/21 12:29:36;;;;;;;1.75;0.80;;;16.20;99.90;;;;;;4815038;29;20056;-92
2023/09/21 12:32:06;;;;;;;0.88;0.70;;;16.20;99.90;;;;;;4830280;29;20112;-92
2023/09/21 12:34:32;;;;;;;1.50;0.70;;;16.20;99.90;;;;;;4845760;29;20068;-91
2023/09/21 12:36:59;;;;;;;2.10;0.60;;;16.20;99.90;;;;;;4830112;29;20101;-91
2023/09/21 12:39:24;;;;;;;1.48;0.60;;;15.60;99.90;;;;;;4844521;29;20053;-91
2023/09/21 12:41:51;;;;;;;1.50;0.57;;;16.20;99.90;;;;;;4841646;29;20077;-90
2023/09/21 12:44:17;;;;;;;1.50;0.60;;;16.30;99.90;;;;;;4838911;29;20045;-91
2023/09/21 12:46:44;;;;;;;0.82;0.50;;;16.30;99.90;;;;;;4820436;29;20129;-90
2023/09/21 12:49:10;;;;;;;0.52;0.30;;;16.20;99.90;;;;;;4826274;29;20052;-91
2023/09/21 12:51:37;;;;;;;1.52;0.40;;;16.20;99.90;;;;;;4843942;29;20051;-90
2023/09/21 12:54:03;;;;;;;1.05;0.50;;;16.20;99.90;;;;;;4842715;29;20041;-91
2023/09/21 12:56:29;;;;;;;1.48;0.50;;;16.20;99.90;;;;;;4846398;29;20049;-90
2023/09/21 12:58:58;;;;;;;0.57;0.38;;;16.10;99.90;;;;;;4840459;29;20047;-90